sensor_id;sensor_type;location;lat;lon;timestamp;temperature;humidity
32612;DHT22;19030;49.478;8.986;2022-08-25T00:01:52;18.30;93.70
32612;DHT22;19030;49.478;8.986;2022-08-25T00:03:53;18.30;94.00
32612;DHT22;19030;49.478;8.986;2022-08-25T00:05:54;18.20;94.20
32612;DHT22;19030;49.478;8.986;2022-08-25T00:07:55;18.30;94.40
32612;DHT22;19030;49.478;8.986;2022-08-25T00:09:55;18.20;94.50
32612;DHT22;19030;49.478;8.986;2022-08-25T00:11:56;18.20;94.50
32612;DHT22;19030;49.478;8.986;2022-08-25T00:14:01;18.20;94.60
32612;DHT22;19030;49.478;8.986;2022-08-25T00:16:02;18.20;94.60
32612;DHT22;19030;49.478;8.986;2022-08-25T00:18:03;18.20;94.70
32612;DHT22;19030;49.478;8.986;2022-08-25T00:20:05;18.10;94.70
32612;DHT22;19030;49.478;8.986;2022-08-25T00:22:08;18.10;94.80
32612;DHT22;19030;49.478;8.986;2022-08-25T00:24:10;18.10;94.80
32612;DHT22;19030;49.478;8.986;2022-08-25T00:26:12;18.10;95.00
32612;DHT22;19030;49.478;8.986;2022-08-25T00:28:14;18.10;95.10
32612;DHT22;19030;49.478;8.986;2022-08-25T00:30:17;18.10;95.20
32612;DHT22;19030;49.478;8.986;2022-08-25T00:32:18;18.10;95.30
32612;DHT22;19030;49.478;8.986;2022-08-25T00:34:22;18.00;95.40
32612;DHT22;19030;49.478;8.986;2022-08-25T00:36:25;18.00;95.60
32612;DHT22;19030;49.478;8.986;2022-08-25T00:38:25;17.90;95.70
32612;DHT22;19030;49.478;8.986;2022-08-25T00:40:27;18.00;95.80
32612;DHT22;19030;49.478;8.986;2022-08-25T00:42:28;17.90;96.10
32612;DHT22;19030;49.478;8.986;2022-08-25T00:44:30;17.90;96.50
32612;DHT22;19030;49.478;8.986;2022-08-25T00:46:35;17.90;96.30
32612;DHT22;19030;49.478;8.986;2022-08-25T00:48:37;17.90;96.50
32612;DHT22;19030;49.478;8.986;2022-08-25T00:50:41;17.90;96.60
32612;DHT22;19030;49.478;8.986;2022-08-25T00:52:51;17.90;96.70
32612;DHT22;19030;49.478;8.986;2022-08-25T00:55:25;17.90;96.70
32612;DHT22;19030;49.478;8.986;2022-08-25T00:57:32;17.90;96.80
32612;DHT22;19030;49.478;8.986;2022-08-25T00:59:33;17.90;96.90
32612;DHT22;19030;49.478;8.986;2022-08-25T01:01:34;17.80;97.00
32612;DHT22;19030;49.478;8.986;2022-08-25T01:03:34;17.80;97.10
32612;DHT22;19030;49.478;8.986;2022-08-25T01:05:35;17.80;97.20
32612;DHT22;19030;49.478;8.986;2022-08-25T01:07:37;17.80;97.30
32612;DHT22;19030;49.478;8.986;2022-08-25T01:09:38;17.80;97.50
32612;DHT22;19030;49.478;8.986;2022-08-25T01:11:40;17.80;97.70
32612;DHT22;19030;49.478;8.986;2022-08-25T01:13:42;17.70;97.80
32612;DHT22;19030;49.478;8.986;2022-08-25T01:15:45;17.70;98.00
32612;DHT22;19030;49.478;8.986;2022-08-25T01:17:49;17.60;98.40
32612;DHT22;19030;49.478;8.986;2022-08-25T01:19:50;17.60;98.60
32612;DHT22;19030;49.478;8.986;2022-08-25T01:21:52;17.60;98.80
32612;DHT22;19030;49.478;8.986;2022-08-25T01:23:55;17.50;99.00
32612;DHT22;19030;49.478;8.986;2022-08-25T01:26:13;17.50;99.10
32612;DHT22;19030;49.478;8.986;2022-08-25T01:28:14;17.50;99.20
32612;DHT22;19030;49.478;8.986;2022-08-25T01:30:15;17.50;99.20
32612;DHT22;19030;49.478;8.986;2022-08-25T01:32:16;17.50;99.20
32612;DHT22;19030;49.478;8.986;2022-08-25T01:34:18;17.50;99.30
32612;DHT22;19030;49.478;8.986;2022-08-25T01:36:20;17.50;99.40
32612;DHT22;19030;49.478;8.986;2022-08-25T01:38:20;17.50;99.60
32612;DHT22;19030;49.478;8.986;2022-08-25T01:40:21;17.50;99.80
32612;DHT22;19030;49.478;8.986;2022-08-25T01:42:37;17.40;99.90
32612;DHT22;19030;49.478;8.986;2022-08-25T01:44:43;17.40;99.90
32612;DHT22;19030;49.478;8.986;2022-08-25T01:46:44;17.40;99.90
32612;DHT22;19030;49.478;8.986;2022-08-25T01:48:45;17.40;99.90
32612;DHT22;19030;49.478;8.986;2022-08-25T01:50:45;17.40;99.90
32612;DHT22;19030;49.478;8.986;2022-08-25T01:54:55;17.40;99.90
32612;DHT22;19030;49.478;8.986;2022-08-25T01:56:57;17.30;99.90
32612;DHT22;19030;49.478;8.986;2022-08-25T01:58:58;17.30;99.90
32612;DHT22;19030;49.478;8.986;2022-08-25T02:01:01;17.30;99.90
32612;DHT22;19030;49.478;8.986;2022-08-25T02:03:02;17.30;99.90
32612;DHT22;19030;49.478;8.986;2022-08-25T02:05:02;17.30;99.90
32612;DHT22;19030;49.478;8.986;2022-08-25T02:07:05;17.20;99.90
32612;DHT22;19030;49.478;8.986;2022-08-25T02:09:12;17.20;99.90
32612;DHT22;19030;49.478;8.986;2022-08-25T02:11:13;17.20;99.90
32612;DHT22;19030;49.478;8.986;2022-08-25T02:13:14;17.20;99.90
32612;DHT22;19030;49.478;8.986;2022-08-25T02:15:15;17.10;99.90
32612;DHT22;19030;49.478;8.986;2022-08-25T02:17:15;17.10;99.90
32612;DHT22;19030;49.478;8.986;2022-08-25T02:19:17;17.20;99.90
32612;DHT22;19030;49.478;8.986;2022-08-25T02:21:18;17.20;99.90
32612;DHT22;19030;49.478;8.986;2022-08-25T02:23:19;17.10;99.90
32612;DHT22;19030;49.478;8.986;2022-08-25T02:25:20;17.10;99.90
32612;DHT22;19030;49.478;8.986;2022-08-25T02:27:20;17.00;99.90
32612;DHT22;19030;49.478;8.986;2022-08-25T02:29:21;17.00;99.90
32612;DHT22;19030;49.478;8.986;2022-08-25T02:31:23;17.00;99.90
32612;DHT22;19030;49.478;8.986;2022-08-25T02:33:24;17.00;99.90
32612;DHT22;19030;49.478;8.986;2022-08-25T02:35:25;17.00;99.90
32612;DHT22;19030;49.478;8.986;2022-08-25T02:37:25;17.00;99.90
32612;DHT22;19030;49.478;8.986;2022-08-25T02:39:26;16.90;99.90
32612;DHT22;19030;49.478;8.986;2022-08-25T02:41:27;16.90;99.90
32612;DHT22;19030;49.478;8.986;2022-08-25T02:43:28;16.90;99.90
32612;DHT22;19030;49.478;8.986;2022-08-25T02:45:28;16.90;99.90
32612;DHT22;19030;49.478;8.986;2022-08-25T02:47:29;16.90;99.90
32612;DHT22;19030;49.478;8.986;2022-08-25T02:49:31;16.90;99.90
32612;DHT22;19030;49.478;8.986;2022-08-25T02:51:32;16.90;99.90
32612;DHT22;19030;49.478;8.986;2022-08-25T02:53:35;16.80;99.90
32612;DHT22;19030;49.478;8.986;2022-08-25T02:55:39;16.80;99.90
32612;DHT22;19030;49.478;8.986;2022-08-25T02:57:40;16.80;99.90
32612;DHT22;19030;49.478;8.986;2022-08-25T02:59:41;16.80;99.90
32612;DHT22;19030;49.478;8.986;2022-08-25T03:01:42;16.70;99.90
32612;DHT22;19030;49.478;8.986;2022-08-25T03:03:45;16.70;99.90
32612;DHT22;19030;49.478;8.986;2022-08-25T03:05:46;16.70;99.90
32612;DHT22;19030;49.478;8.986;2022-08-25T03:07:46;16.70;99.90
32612;DHT22;19030;49.478;8.986;2022-08-25T03:09:47;16.70;99.90
32612;DHT22;19030;49.478;8.986;2022-08-25T03:11:48;16.70;99.90
32612;DHT22;19030;49.478;8.986;2022-08-25T03:13:48;16.70;99.90
32612;DHT22;19030;49.478;8.986;2022-08-25T03:15:50;16.70;99.90
32612;DHT22;19030;49.478;8.986;2022-08-25T03:17:51;16.60;99.90
32612;DHT22;19030;49.478;8.986;2022-08-25T03:19:52;16.60;99.90
32612;DHT22;19030;49.478;8.986;2022-08-25T03:21:53;16.60;99.90
32612;DHT22;19030;49.478;8.986;2022-08-25T03:23:56;16.50;99.90
32612;DHT22;19030;49.478;8.986;2022-08-25T03:25:58;16.50;99.90
32612;DHT22;19030;49.478;8.986;2022-08-25T03:28:18;16.50;99.90
32612;DHT22;19030;49.478;8.986;2022-08-25T03:30:19;16.50;99.90
32612;DHT22;19030;49.478;8.986;2022-08-25T03:32:19;16.50;99.90
32612;DHT22;19030;49.478;8.986;2022-08-25T03:34:21;16.40;99.90
32612;DHT22;19030;49.478;8.986;2022-08-25T03:36:22;16.30;99.90
32612;DHT22;19030;49.478;8.986;2022-08-25T03:38:23;16.30;99.90
32612;DHT22;19030;49.478;8.986;2022-08-25T03:40:25;16.30;99.90
32612;DHT22;19030;49.478;8.986;2022-08-25T03:42:26;16.30;99.90
32612;DHT22;19030;49.478;8.986;2022-08-25T03:44:26;16.30;99.90
32612;DHT22;19030;49.478;8.986;2022-08-25T03:46:33;16.30;99.90
32612;DHT22;19030;49.478;8.986;2022-08-25T03:48:34;16.30;99.90
32612;DHT22;19030;49.478;8.986;2022-08-25T03:50:35;16.30;99.90
32612;DHT22;19030;49.478;8.986;2022-08-25T03:52:36;16.30;99.90
32612;DHT22;19030;49.478;8.986;2022-08-25T03:54:37;16.40;99.90
32612;DHT22;19030;49.478;8.986;2022-08-25T03:56:38;16.30;99.90
32612;DHT22;19030;49.478;8.986;2022-08-25T03:58:38;16.30;99.90
32612;DHT22;19030;49.478;8.986;2022-08-25T04:00:39;16.20;99.90
32612;DHT22;19030;49.478;8.986;2022-08-25T04:02:40;16.30;99.90
32612;DHT22;19030;49.478;8.986;2022-08-25T04:04:41;16.20;99.90
32612;DHT22;19030;49.478;8.986;2022-08-25T04:06:42;16.20;99.90
32612;DHT22;19030;49.478;8.986;2022-08-25T04:08:44;16.20;99.90
32612;DHT22;19030;49.478;8.986;2022-08-25T04:10:45;16.20;99.90
32612;DHT22;19030;49.478;8.986;2022-08-25T04:12:46;16.10;99.90
32612;DHT22;19030;49.478;8.986;2022-08-25T04:14:48;16.20;99.90
32612;DHT22;19030;49.478;8.986;2022-08-25T04:16:49;16.10;99.90
32612;DHT22;19030;49.478;8.986;2022-08-25T04:18:51;16.10;99.90
32612;DHT22;19030;49.478;8.986;2022-08-25T04:21:01;16.00;99.90
32612;DHT22;19030;49.478;8.986;2022-08-25T04:23:01;16.00;99.90
32612;DHT22;19030;49.478;8.986;2022-08-25T04:25:04;16.00;99.90
32612;DHT22;19030;49.478;8.986;2022-08-25T04:27:05;16.00;99.90
32612;DHT22;19030;49.478;8.986;2022-08-25T04:29:07;16.00;99.90
32612;DHT22;19030;49.478;8.986;2022-08-25T04:31:10;16.00;99.90
32612;DHT22;19030;49.478;8.986;2022-08-25T04:33:11;16.00;99.90
32612;DHT22;19030;49.478;8.986;2022-08-25T04:35:13;16.00;99.90
32612;DHT22;19030;49.478;8.986;2022-08-25T04:37:14;16.00;99.90
32612;DHT22;19030;49.478;8.986;2022-08-25T04:39:15;16.00;99.90
32612;DHT22;19030;49.478;8.986;2022-08-25T04:41:19;16.00;99.90
32612;DHT22;19030;49.478;8.986;2022-08-25T04:43:19;16.00;99.90
32612;DHT22;19030;49.478;8.986;2022-08-25T04:45:20;16.00;99.90
32612;DHT22;19030;49.478;8.986;2022-08-25T04:47:20;16.00;99.90
32612;DHT22;19030;49.478;8.986;2022-08-25T04:49:21;16.00;99.90
32612;DHT22;19030;49.478;8.986;2022-08-25T04:51:25;16.00;99.90
32612;DHT22;19030;49.478;8.986;2022-08-25T04:53:26;16.10;99.90
32612;DHT22;19030;49.478;8.986;2022-08-25T04:55:26;16.10;99.90
32612;DHT22;19030;49.478;8.986;2022-08-25T04:57:27;16.10;99.90
32612;DHT22;19030;49.478;8.986;2022-08-25T04:59:27;16.20;99.90
32612;DHT22;19030;49.478;8.986;2022-08-25T05:01:28;16.20;99.90
32612;DHT22;19030;49.478;8.986;2022-08-25T05:03:29;16.20;99.90
32612;DHT22;19030;49.478;8.986;2022-08-25T05:05:31;16.20;99.90
32612;DHT22;19030;49.478;8.986;2022-08-25T05:07:31;16.30;99.90
32612;DHT22;19030;49.478;8.986;2022-08-25T05:09:32;16.30;99.90
32612;DHT22;19030;49.478;8.986;2022-08-25T05:11:33;16.40;99.90
32612;DHT22;19030;49.478;8.986;2022-08-25T05:13:34;16.40;99.90
32612;DHT22;19030;49.478;8.986;2022-08-25T05:15:35;16.50;99.90
32612;DHT22;19030;49.478;8.986;2022-08-25T05:17:50;16.50;99.90
32612;DHT22;19030;49.478;8.986;2022-08-25T05:19:51;16.60;99.90
32612;DHT22;19030;49.478;8.986;2022-08-25T05:21:51;16.60;99.90
32612;DHT22;19030;49.478;8.986;2022-08-25T05:23:57;16.60;99.90
32612;DHT22;19030;49.478;8.986;2022-08-25T05:26:07;16.70;99.90
32612;DHT22;19030;49.478;8.986;2022-08-25T05:28:08;16.70;99.90
32612;DHT22;19030;49.478;8.986;2022-08-25T05:30:10;16.80;99.90
32612;DHT22;19030;49.478;8.986;2022-08-25T05:32:10;16.90;99.90
32612;DHT22;19030;49.478;8.986;2022-08-25T05:34:11;16.90;99.90
32612;DHT22;19030;49.478;8.986;2022-08-25T05:36:13;17.00;99.90
32612;DHT22;19030;49.478;8.986;2022-08-25T05:38:13;17.10;99.90
32612;DHT22;19030;49.478;8.986;2022-08-25T05:40:14;17.20;99.90
32612;DHT22;19030;49.478;8.986;2022-08-25T05:42:14;17.20;99.90
32612;DHT22;19030;49.478;8.986;2022-08-25T05:44:15;17.40;99.90
32612;DHT22;19030;49.478;8.986;2022-08-25T05:46:18;17.40;99.90
32612;DHT22;19030;49.478;8.986;2022-08-25T05:48:19;17.50;99.90
32612;DHT22;19030;49.478;8.986;2022-08-25T05:50:20;17.60;99.90
32612;DHT22;19030;49.478;8.986;2022-08-25T05:52:20;17.70;99.90
32612;DHT22;19030;49.478;8.986;2022-08-25T05:54:21;17.70;99.90
32612;DHT22;19030;49.478;8.986;2022-08-25T05:56:21;17.80;99.90
32612;DHT22;19030;49.478;8.986;2022-08-25T05:58:23;18.00;99.90
32612;DHT22;19030;49.478;8.986;2022-08-25T06:00:25;18.20;99.90
32612;DHT22;19030;49.478;8.986;2022-08-25T06:02:25;18.50;99.90
32612;DHT22;19030;49.478;8.986;2022-08-25T06:04:43;18.90;99.90
32612;DHT22;19030;49.478;8.986;2022-08-25T06:06:44;19.30;99.90
32612;DHT22;19030;49.478;8.986;2022-08-25T06:08:44;19.50;99.90
32612;DHT22;19030;49.478;8.986;2022-08-25T06:10:50;19.50;99.90
32612;DHT22;19030;49.478;8.986;2022-08-25T06:12:51;19.40;99.90
32612;DHT22;19030;49.478;8.986;2022-08-25T06:14:52;19.50;99.90
32612;DHT22;19030;49.478;8.986;2022-08-25T06:16:53;19.90;99.90
32612;DHT22;19030;49.478;8.986;2022-08-25T06:18:53;20.60;98.40
32612;DHT22;19030;49.478;8.986;2022-08-25T06:20:54;21.50;96.40
32612;DHT22;19030;49.478;8.986;2022-08-25T06:22:56;22.30;93.70
32612;DHT22;19030;49.478;8.986;2022-08-25T06:24:56;23.10;91.70
32612;DHT22;19030;49.478;8.986;2022-08-25T06:26:57;23.90;88.40
32612;DHT22;19030;49.478;8.986;2022-08-25T06:28:58;24.50;83.60
32612;DHT22;19030;49.478;8.986;2022-08-25T06:30:59;25.10;79.40
32612;DHT22;19030;49.478;8.986;2022-08-25T06:33:00;25.50;76.40
32612;DHT22;19030;49.478;8.986;2022-08-25T06:35:02;25.80;75.20
32612;DHT22;19030;49.478;8.986;2022-08-25T06:37:03;26.20;72.30
32612;DHT22;19030;49.478;8.986;2022-08-25T06:39:03;26.60;70.70
32612;DHT22;19030;49.478;8.986;2022-08-25T06:41:05;26.90;68.40
32612;DHT22;19030;49.478;8.986;2022-08-25T06:43:06;27.10;67.10
32612;DHT22;19030;49.478;8.986;2022-08-25T06:45:08;27.40;64.80
32612;DHT22;19030;49.478;8.986;2022-08-25T06:47:09;27.80;62.50
32612;DHT22;19030;49.478;8.986;2022-08-25T06:49:09;28.00;61.40
32612;DHT22;19030;49.478;8.986;2022-08-25T06:51:13;28.10;60.90
32612;DHT22;19030;49.478;8.986;2022-08-25T06:53:14;28.20;59.90
32612;DHT22;19030;49.478;8.986;2022-08-25T06:55:15;28.40;58.80
32612;DHT22;19030;49.478;8.986;2022-08-25T06:57:15;28.60;58.90
32612;DHT22;19030;49.478;8.986;2022-08-25T06:59:16;28.80;57.50
32612;DHT22;19030;49.478;8.986;2022-08-25T07:01:23;28.70;57.80
32612;DHT22;19030;49.478;8.986;2022-08-25T07:03:25;28.90;57.70
32612;DHT22;19030;49.478;8.986;2022-08-25T07:05:27;29.00;56.90
32612;DHT22;19030;49.478;8.986;2022-08-25T07:07:28;29.10;56.70
32612;DHT22;19030;49.478;8.986;2022-08-25T07:09:28;29.30;56.50
32612;DHT22;19030;49.478;8.986;2022-08-25T07:11:29;29.60;56.00
32612;DHT22;19030;49.478;8.986;2022-08-25T07:13:34;29.90;55.30
32612;DHT22;19030;49.478;8.986;2022-08-25T07:15:40;30.10;54.60
32612;DHT22;19030;49.478;8.986;2022-08-25T07:17:40;30.30;54.50
32612;DHT22;19030;49.478;8.986;2022-08-25T07:19:41;30.30;53.80
32612;DHT22;19030;49.478;8.986;2022-08-25T07:21:42;30.30;53.40
32612;DHT22;19030;49.478;8.986;2022-08-25T07:23:45;30.20;53.20
32612;DHT22;19030;49.478;8.986;2022-08-25T07:25:46;30.30;53.80
32612;DHT22;19030;49.478;8.986;2022-08-25T07:27:47;30.50;53.10
32612;DHT22;19030;49.478;8.986;2022-08-25T07:29:47;30.70;52.70
32612;DHT22;19030;49.478;8.986;2022-08-25T07:31:49;30.80;52.30
32612;DHT22;19030;49.478;8.986;2022-08-25T07:33:50;30.90;52.40
32612;DHT22;19030;49.478;8.986;2022-08-25T07:36:09;30.90;52.70
32612;DHT22;19030;49.478;8.986;2022-08-25T07:38:09;30.90;52.50
32612;DHT22;19030;49.478;8.986;2022-08-25T07:40:16;31.00;52.30
32612;DHT22;19030;49.478;8.986;2022-08-25T07:42:17;31.00;52.40
32612;DHT22;19030;49.478;8.986;2022-08-25T07:44:20;30.90;52.40
32612;DHT22;19030;49.478;8.986;2022-08-25T07:46:21;30.90;53.00
32612;DHT22;19030;49.478;8.986;2022-08-25T07:48:21;30.80;52.80
32612;DHT22;19030;49.478;8.986;2022-08-25T07:50:22;30.90;52.90
32612;DHT22;19030;49.478;8.986;2022-08-25T07:52:23;31.00;53.20
32612;DHT22;19030;49.478;8.986;2022-08-25T07:54:24;31.10;53.20
32612;DHT22;19030;49.478;8.986;2022-08-25T07:56:27;31.30;52.60
32612;DHT22;19030;49.478;8.986;2022-08-25T07:58:27;31.40;52.40
32612;DHT22;19030;49.478;8.986;2022-08-25T08:00:29;31.50;52.50
32612;DHT22;19030;49.478;8.986;2022-08-25T08:02:32;31.50;52.50
32612;DHT22;19030;49.478;8.986;2022-08-25T08:04:35;31.50;52.20
32612;DHT22;19030;49.478;8.986;2022-08-25T08:06:38;31.60;52.10
32612;DHT22;19030;49.478;8.986;2022-08-25T08:08:40;31.90;51.70
32612;DHT22;19030;49.478;8.986;2022-08-25T08:10:45;32.10;50.80
32612;DHT22;19030;49.478;8.986;2022-08-25T08:12:46;32.40;50.80
32612;DHT22;19030;49.478;8.986;2022-08-25T08:14:47;32.60;50.30
32612;DHT22;19030;49.478;8.986;2022-08-25T08:16:48;32.80;49.60
32612;DHT22;19030;49.478;8.986;2022-08-25T08:18:49;32.90;49.20
32612;DHT22;19030;49.478;8.986;2022-08-25T08:20:49;33.20;48.90
32612;DHT22;19030;49.478;8.986;2022-08-25T08:22:50;33.40;48.60
32612;DHT22;19030;49.478;8.986;2022-08-25T08:24:51;33.60;47.50
32612;DHT22;19030;49.478;8.986;2022-08-25T08:26:51;33.70;47.40
32612;DHT22;19030;49.478;8.986;2022-08-25T08:28:52;34.10;46.50
32612;DHT22;19030;49.478;8.986;2022-08-25T08:30:52;34.60;46.00
32612;DHT22;19030;49.478;8.986;2022-08-25T08:32:54;35.30;44.60
32612;DHT22;19030;49.478;8.986;2022-08-25T08:34:54;36.00;42.90
32612;DHT22;19030;49.478;8.986;2022-08-25T08:36:55;36.40;42.20
32612;DHT22;19030;49.478;8.986;2022-08-25T08:38:56;36.80;41.50
32612;DHT22;19030;49.478;8.986;2022-08-25T08:43:42;37.00;40.50
32612;DHT22;19030;49.478;8.986;2022-08-25T08:45:49;37.40;40.80
32612;DHT22;19030;49.478;8.986;2022-08-25T08:50:27;38.40;37.90
32612;DHT22;19030;49.478;8.986;2022-08-25T08:53:04;38.20;37.80
32612;DHT22;19030;49.478;8.986;2022-08-25T08:55:32;38.50;37.20
32612;DHT22;19030;49.478;8.986;2022-08-25T08:57:37;38.80;36.80
32612;DHT22;19030;49.478;8.986;2022-08-25T08:59:47;38.90;36.30
32612;DHT22;19030;49.478;8.986;2022-08-25T09:01:57;39.20;36.30
32612;DHT22;19030;49.478;8.986;2022-08-25T09:04:09;38.70;36.40
32612;DHT22;19030;49.478;8.986;2022-08-25T09:06:16;39.20;36.10
32612;DHT22;19030;49.478;8.986;2022-08-25T09:08:17;39.80;35.60
32612;DHT22;19030;49.478;8.986;2022-08-25T09:10:19;40.30;34.40
32612;DHT22;19030;49.478;8.986;2022-08-25T09:12:40;40.60;33.60
32612;DHT22;19030;49.478;8.986;2022-08-25T09:15:07;40.70;33.20
32612;DHT22;19030;49.478;8.986;2022-08-25T09:17:15;41.00;32.90
32612;DHT22;19030;49.478;8.986;2022-08-25T09:19:30;40.50;33.80
32612;DHT22;19030;49.478;8.986;2022-08-25T09:21:40;40.60;33.10
32612;DHT22;19030;49.478;8.986;2022-08-25T09:24:10;40.90;32.70
32612;DHT22;19030;49.478;8.986;2022-08-25T09:26:39;41.90;31.70
32612;DHT22;19030;49.478;8.986;2022-08-25T09:28:51;42.40;31.20
32612;DHT22;19030;49.478;8.986;2022-08-25T09:31:00;42.10;30.50
32612;DHT22;19030;49.478;8.986;2022-08-25T09:33:02;41.80;31.70
32612;DHT22;19030;49.478;8.986;2022-08-25T09:35:05;42.20;30.40
32612;DHT22;19030;49.478;8.986;2022-08-25T09:37:06;42.80;29.90
32612;DHT22;19030;49.478;8.986;2022-08-25T09:39:07;43.70;29.30
32612;DHT22;19030;49.478;8.986;2022-08-25T09:41:08;44.10;29.00
32612;DHT22;19030;49.478;8.986;2022-08-25T09:43:43;44.70;28.60
32612;DHT22;19030;49.478;8.986;2022-08-25T09:45:46;44.70;28.10
32612;DHT22;19030;49.478;8.986;2022-08-25T09:47:47;42.80;29.30
32612;DHT22;19030;49.478;8.986;2022-08-25T09:49:59;41.80;30.40
32612;DHT22;19030;49.478;8.986;2022-08-25T09:52:29;40.90;31.20
32612;DHT22;19030;49.478;8.986;2022-08-25T09:54:31;39.30;33.70
32612;DHT22;19030;49.478;8.986;2022-08-25T09:58:50;40.80;32.30
32612;DHT22;19030;49.478;8.986;2022-08-25T10:01:12;41.70;31.00
32612;DHT22;19030;49.478;8.986;2022-08-25T10:03:19;42.70;29.90
32612;DHT22;19030;49.478;8.986;2022-08-25T10:05:23;42.40;29.40
32612;DHT22;19030;49.478;8.986;2022-08-25T10:07:28;42.60;29.20
32612;DHT22;19030;49.478;8.986;2022-08-25T10:09:37;42.90;29.30
32612;DHT22;19030;49.478;8.986;2022-08-25T10:11:42;42.10;29.40
32612;DHT22;19030;49.478;8.986;2022-08-25T10:13:49;39.90;31.40
32612;DHT22;19030;49.478;8.986;2022-08-25T10:16:09;39.20;32.50
32612;DHT22;19030;49.478;8.986;2022-08-25T10:18:24;41.00;31.40
32612;DHT22;19030;49.478;8.986;2022-08-25T10:20:26;42.70;29.30
32612;DHT22;19030;49.478;8.986;2022-08-25T10:22:27;42.90;28.70
32612;DHT22;19030;49.478;8.986;2022-08-25T10:24:32;42.00;29.30
32612;DHT22;19030;49.478;8.986;2022-08-25T10:26:47;42.40;29.50
32612;DHT22;19030;49.478;8.986;2022-08-25T10:29:22;43.40;28.70
32612;DHT22;19030;49.478;8.986;2022-08-25T10:31:35;44.60;28.00
32612;DHT22;19030;49.478;8.986;2022-08-25T10:34:06;44.50;27.70
32612;DHT22;19030;49.478;8.986;2022-08-25T10:36:21;44.30;27.70
32612;DHT22;19030;49.478;8.986;2022-08-25T10:38:31;43.50;28.20
32612;DHT22;19030;49.478;8.986;2022-08-25T10:40:43;42.30;29.00
32612;DHT22;19030;49.478;8.986;2022-08-25T10:43:04;41.10;30.00
32612;DHT22;19030;49.478;8.986;2022-08-25T10:45:18;39.90;30.90
32612;DHT22;19030;49.478;8.986;2022-08-25T10:47:53;39.60;31.70
32612;DHT22;19030;49.478;8.986;2022-08-25T10:50:26;39.10;32.10
32612;DHT22;19030;49.478;8.986;2022-08-25T10:52:38;38.40;33.10
32612;DHT22;19030;49.478;8.986;2022-08-25T10:54:57;37.80;34.20
32612;DHT22;19030;49.478;8.986;2022-08-25T10:57:17;37.70;34.60
32612;DHT22;19030;49.478;8.986;2022-08-25T10:59:40;38.00;33.90
32612;DHT22;19030;49.478;8.986;2022-08-25T11:04:34;38.20;33.80
32612;DHT22;19030;49.478;8.986;2022-08-25T11:06:42;38.00;33.50
32612;DHT22;19030;49.478;8.986;2022-08-25T11:08:46;38.00;33.50
32612;DHT22;19030;49.478;8.986;2022-08-25T11:11:04;38.20;33.40
32612;DHT22;19030;49.478;8.986;2022-08-25T11:13:18;37.90;32.80
32612;DHT22;19030;49.478;8.986;2022-08-25T11:15:27;37.80;33.30
32612;DHT22;19030;49.478;8.986;2022-08-25T11:17:48;37.80;33.80
32612;DHT22;19030;49.478;8.986;2022-08-25T11:19:58;37.70;33.60
32612;DHT22;19030;49.478;8.986;2022-08-25T11:26:48;36.30;35.00
32612;DHT22;19030;49.478;8.986;2022-08-25T11:29:13;35.70;36.00
32612;DHT22;19030;49.478;8.986;2022-08-25T11:31:16;35.20;37.20
32612;DHT22;19030;49.478;8.986;2022-08-25T11:33:19;35.60;36.90
32612;DHT22;19030;49.478;8.986;2022-08-25T11:35:39;35.70;36.90
32612;DHT22;19030;49.478;8.986;2022-08-25T11:37:56;35.70;36.60
32612;DHT22;19030;49.478;8.986;2022-08-25T11:40:18;35.20;37.30
32612;DHT22;19030;49.478;8.986;2022-08-25T11:42:50;35.50;36.60
32612;DHT22;19030;49.478;8.986;2022-08-25T11:47:47;36.00;36.50
32612;DHT22;19030;49.478;8.986;2022-08-25T11:49:54;36.40;36.00
32612;DHT22;19030;49.478;8.986;2022-08-25T11:51:58;36.70;35.80
32612;DHT22;19030;49.478;8.986;2022-08-25T11:56:36;37.00;35.60
32612;DHT22;19030;49.478;8.986;2022-08-25T12:00:43;36.70;35.30
32612;DHT22;19030;49.478;8.986;2022-08-25T12:02:46;36.20;35.90
32612;DHT22;19030;49.478;8.986;2022-08-25T12:04:47;36.00;36.20
32612;DHT22;19030;49.478;8.986;2022-08-25T12:17:42;33.30;40.10
32612;DHT22;19030;49.478;8.986;2022-08-25T12:21:43;32.90;41.00
32612;DHT22;19030;49.478;8.986;2022-08-25T12:24:10;32.90;41.20
32612;DHT22;19030;49.478;8.986;2022-08-25T12:28:55;32.90;41.20
32612;DHT22;19030;49.478;8.986;2022-08-25T12:31:02;33.30;41.30
32612;DHT22;19030;49.478;8.986;2022-08-25T12:33:46;33.60;40.00
32612;DHT22;19030;49.478;8.986;2022-08-25T12:36:00;33.50;39.80
32612;DHT22;19030;49.478;8.986;2022-08-25T12:38:08;33.60;40.10
32612;DHT22;19030;49.478;8.986;2022-08-25T12:40:24;33.60;40.10
32612;DHT22;19030;49.478;8.986;2022-08-25T12:42:40;34.20;39.60
32612;DHT22;19030;49.478;8.986;2022-08-25T12:44:45;34.70;38.40
32612;DHT22;19030;49.478;8.986;2022-08-25T12:47:06;35.40;37.30
32612;DHT22;19030;49.478;8.986;2022-08-25T12:49:32;36.10;36.50
32612;DHT22;19030;49.478;8.986;2022-08-25T12:51:52;36.70;36.00
32612;DHT22;19030;49.478;8.986;2022-08-25T12:58:18;36.40;35.50
32612;DHT22;19030;49.478;8.986;2022-08-25T13:00:20;36.50;35.60
32612;DHT22;19030;49.478;8.986;2022-08-25T13:07:49;37.50;34.70
32612;DHT22;19030;49.478;8.986;2022-08-25T13:12:32;37.90;33.80
32612;DHT22;19030;49.478;8.986;2022-08-25T13:14:43;37.90;33.60
32612;DHT22;19030;49.478;8.986;2022-08-25T13:16:53;37.80;33.60
32612;DHT22;19030;49.478;8.986;2022-08-25T13:18:54;38.00;33.30
32612;DHT22;19030;49.478;8.986;2022-08-25T13:21:18;38.00;33.30
32612;DHT22;19030;49.478;8.986;2022-08-25T13:23:26;37.70;33.30
32612;DHT22;19030;49.478;8.986;2022-08-25T13:25:28;37.50;33.90
32612;DHT22;19030;49.478;8.986;2022-08-25T13:27:29;37.40;34.20
32612;DHT22;19030;49.478;8.986;2022-08-25T13:29:34;37.10;33.90
32612;DHT22;19030;49.478;8.986;2022-08-25T13:31:36;36.50;33.90
32612;DHT22;19030;49.478;8.986;2022-08-25T13:33:37;35.70;34.70
32612;DHT22;19030;49.478;8.986;2022-08-25T13:35:38;35.40;35.70
32612;DHT22;19030;49.478;8.986;2022-08-25T13:37:38;35.70;36.00
32612;DHT22;19030;49.478;8.986;2022-08-25T13:39:39;36.20;34.90
32612;DHT22;19030;49.478;8.986;2022-08-25T13:41:47;37.00;34.40
32612;DHT22;19030;49.478;8.986;2022-08-25T13:43:48;36.90;33.50
32612;DHT22;19030;49.478;8.986;2022-08-25T13:45:50;36.50;34.00
32612;DHT22;19030;49.478;8.986;2022-08-25T13:47:51;36.30;35.00
32612;DHT22;19030;49.478;8.986;2022-08-25T13:49:52;36.30;34.70
32612;DHT22;19030;49.478;8.986;2022-08-25T13:51:53;36.40;34.30
32612;DHT22;19030;49.478;8.986;2022-08-25T13:53:57;36.30;33.50
32612;DHT22;19030;49.478;8.986;2022-08-25T13:56:00;35.90;33.90
32612;DHT22;19030;49.478;8.986;2022-08-25T13:58:02;35.90;34.80
32612;DHT22;19030;49.478;8.986;2022-08-25T14:00:07;36.00;34.50
32612;DHT22;19030;49.478;8.986;2022-08-25T14:02:11;36.00;34.90